sensor_id;sensor_type;location;lat;lon;timestamp;P1;durP1;ratioP1;P2;durP2;ratioP2
10174;SDS011;18221;38.704;0.152;2023-11-21T00:01:51;31.40;;;23.80;;
10174;SDS011;18221;38.704;0.152;2023-11-21T00:04:18;29.17;;;22.30;;
10174;SDS011;18221;38.704;0.152;2023-11-21T00:06:46;29.27;;;21.83;;
10174;SDS011;18221;38.704;0.152;2023-11-21T00:09:14;30.40;;;21.90;;
10174;SDS011;18221;38.704;0.152;2023-11-21T00:11:42;29.77;;;22.57;;
10174;SDS011;18221;38.704;0.152;2023-11-21T00:14:11;33.23;;;24.03;;
10174;SDS011;18221;38.704;0.152;2023-11-21T00:16:40;33.97;;;24.30;;
10174;SDS011;18221;38.704;0.152;2023-11-21T00:19:10;32.13;;;22.67;;
10174;SDS011;18221;38.704;0.152;2023-11-21T00:21:39;32.60;;;22.83;;
10174;SDS011;18221;38.704;0.152;2023-11-21T00:24:09;28.50;;;20.67;;
10174;SDS011;18221;38.704;0.152;2023-11-21T00:26:39;28.57;;;19.50;;
10174;SDS011;18221;38.704;0.152;2023-11-21T00:29:07;26.60;;;18.93;;
10174;SDS011;18221;38.704;0.152;2023-11-21T00:31:36;29.20;;;21.70;;
10174;SDS011;18221;38.704;0.152;2023-11-21T00:34:06;32.37;;;22.60;;
10174;SDS011;18221;38.704;0.152;2023-11-21T00:36:35;34.47;;;23.13;;
10174;SDS011;18221;38.704;0.152;2023-11-21T00:39:03;33.47;;;22.97;;
10174;SDS011;18221;38.704;0.152;2023-11-21T00:41:32;31.93;;;22.83;;
10174;SDS011;18221;38.704;0.152;2023-11-21T00:44:01;36.10;;;24.23;;
10174;SDS011;18221;38.704;0.152;2023-11-21T00:46:30;35.40;;;24.47;;
10174;SDS011;18221;38.704;0.152;2023-11-21T00:48:58;34.37;;;25.30;;
10174;SDS011;18221;38.704;0.152;2023-11-21T00:51:26;35.50;;;25.10;;
10174;SDS011;18221;38.704;0.152;2023-11-21T00:53:55;34.37;;;24.60;;
10174;SDS011;18221;38.704;0.152;2023-11-21T00:56:23;35.73;;;25.90;;
10174;SDS011;18221;38.704;0.152;2023-11-21T00:58:51;36.37;;;25.27;;
10174;SDS011;18221;38.704;0.152;2023-11-21T01:01:20;37.10;;;25.37;;
10174;SDS011;18221;38.704;0.152;2023-11-21T01:03:49;32.67;;;25.03;;
10174;SDS011;18221;38.704;0.152;2023-11-21T01:06:18;35.83;;;24.80;;
10174;SDS011;18221;38.704;0.152;2023-11-21T01:08:45;27.43;;;21.30;;
10174;SDS011;18221;38.704;0.152;2023-11-21T01:11:15;25.07;;;19.53;;
10174;SDS011;18221;38.704;0.152;2023-11-21T01:13:43;22.03;;;17.50;;
10174;SDS011;18221;38.704;0.152;2023-11-21T01:16:11;27.43;;;19.27;;
10174;SDS011;18221;38.704;0.152;2023-11-21T01:18:39;25.70;;;20.43;;
10174;SDS011;18221;38.704;0.152;2023-11-21T01:21:07;31.37;;;22.43;;
10174;SDS011;18221;38.704;0.152;2023-11-21T01:23:35;30.83;;;22.30;;
10174;SDS011;18221;38.704;0.152;2023-11-21T01:26:03;33.83;;;24.33;;
10174;SDS011;18221;38.704;0.152;2023-11-21T01:28:35;30.60;;;23.57;;
10174;SDS011;18221;38.704;0.152;2023-11-21T01:31:03;33.57;;;24.00;;
10174;SDS011;18221;38.704;0.152;2023-11-21T01:33:32;33.60;;;23.67;;
10174;SDS011;18221;38.704;0.152;2023-11-21T01:36:00;29.53;;;22.20;;
10174;SDS011;18221;38.704;0.152;2023-11-21T01:38:28;30.67;;;22.27;;
10174;SDS011;18221;38.704;0.152;2023-11-21T01:40:57;30.30;;;22.60;;
10174;SDS011;18221;38.704;0.152;2023-11-21T01:43:26;29.47;;;22.10;;
10174;SDS011;18221;38.704;0.152;2023-11-21T01:45:57;30.47;;;21.60;;
10174;SDS011;18221;38.704;0.152;2023-11-21T01:48:25;27.17;;;20.93;;
10174;SDS011;18221;38.704;0.152;2023-11-21T01:50:54;28.97;;;21.67;;
10174;SDS011;18221;38.704;0.152;2023-11-21T01:53:23;25.73;;;20.57;;
10174;SDS011;18221;38.704;0.152;2023-11-21T01:55:53;27.57;;;21.87;;
10174;SDS011;18221;38.704;0.152;2023-11-21T01:58:23;26.53;;;20.87;;
10174;SDS011;18221;38.704;0.152;2023-11-21T02:00:51;27.73;;;22.43;;
10174;SDS011;18221;38.704;0.152;2023-11-21T02:03:21;29.73;;;21.63;;
10174;SDS011;18221;38.704;0.152;2023-11-21T02:05:49;27.87;;;19.80;;
10174;SDS011;18221;38.704;0.152;2023-11-21T02:08:18;23.03;;;17.57;;
10174;SDS011;18221;38.704;0.152;2023-11-21T02:10:46;17.90;;;14.90;;
10174;SDS011;18221;38.704;0.152;2023-11-21T02:13:14;10.90;;;8.50;;
10174;SDS011;18221;38.704;0.152;2023-11-21T02:15:42;12.43;;;10.50;;
10174;SDS011;18221;38.704;0.152;2023-11-21T02:18:10;16.00;;;12.93;;
10174;SDS011;18221;38.704;0.152;2023-11-21T02:20:41;15.47;;;11.63;;
10174;SDS011;18221;38.704;0.152;2023-11-21T02:23:11;10.40;;;8.53;;
10174;SDS011;18221;38.704;0.152;2023-11-21T02:25:39;7.17;;;6.23;;
10174;SDS011;18221;38.704;0.152;2023-11-21T02:28:08;6.53;;;5.43;;
10174;SDS011;18221;38.704;0.152;2023-11-21T02:30:38;9.00;;;7.57;;
10174;SDS011;18221;38.704;0.152;2023-11-21T02:33:06;10.50;;;8.40;;
10174;SDS011;18221;38.704;0.152;2023-11-21T02:35:34;10.17;;;8.00;;
10174;SDS011;18221;38.704;0.152;2023-11-21T02:38:01;6.20;;;5.50;;
10174;SDS011;18221;38.704;0.152;2023-11-21T02:40:31;7.17;;;5.03;;
10174;SDS011;18221;38.704;0.152;2023-11-21T02:42:59;6.10;;;4.90;;
10174;SDS011;18221;38.704;0.152;2023-11-21T02:45:27;6.67;;;4.20;;
10174;SDS011;18221;38.704;0.152;2023-11-21T02:47:55;6.23;;;4.20;;
10174;SDS011;18221;38.704;0.152;2023-11-21T02:50:24;5.40;;;4.60;;
10174;SDS011;18221;38.704;0.152;2023-11-21T02:52:52;4.30;;;3.90;;
10174;SDS011;18221;38.704;0.152;2023-11-21T02:55:22;5.50;;;4.47;;
10174;SDS011;18221;38.704;0.152;2023-11-21T02:57:52;5.87;;;4.90;;
10174;SDS011;18221;38.704;0.152;2023-11-21T03:00:22;5.30;;;4.80;;
10174;SDS011;18221;38.704;0.152;2023-11-21T03:02:50;5.67;;;4.80;;
10174;SDS011;18221;38.704;0.152;2023-11-21T03:05:18;5.80;;;5.10;;
10174;SDS011;18221;38.704;0.152;2023-11-21T03:07:47;6.17;;;5.00;;
10174;SDS011;18221;38.704;0.152;2023-11-21T03:10:15;6.60;;;5.47;;
10174;SDS011;18221;38.704;0.152;2023-11-21T03:12:43;6.37;;;5.67;;
10174;SDS011;18221;38.704;0.152;2023-11-21T03:15:12;8.20;;;6.60;;
10174;SDS011;18221;38.704;0.152;2023-11-21T03:17:40;9.10;;;6.80;;
10174;SDS011;18221;38.704;0.152;2023-11-21T03:20:08;7.63;;;6.50;;
10174;SDS011;18221;38.704;0.152;2023-11-21T03:22:39;7.80;;;6.10;;
10174;SDS011;18221;38.704;0.152;2023-11-21T03:25:07;8.20;;;7.17;;
10174;SDS011;18221;38.704;0.152;2023-11-21T03:27:37;9.13;;;7.43;;
10174;SDS011;18221;38.704;0.152;2023-11-21T03:30:07;10.43;;;7.73;;
10174;SDS011;18221;38.704;0.152;2023-11-21T03:32:38;9.50;;;8.53;;
10174;SDS011;18221;38.704;0.152;2023-11-21T03:35:07;10.77;;;8.53;;
10174;SDS011;18221;38.704;0.152;2023-11-21T03:37:35;9.83;;;8.83;;
10174;SDS011;18221;38.704;0.152;2023-11-21T03:40:04;10.47;;;8.83;;
10174;SDS011;18221;38.704;0.152;2023-11-21T03:42:39;10.97;;;9.03;;
10174;SDS011;18221;38.704;0.152;2023-11-21T03:45:07;13.80;;;9.20;;
10174;SDS011;18221;38.704;0.152;2023-11-21T03:47:39;11.63;;;8.43;;
10174;SDS011;18221;38.704;0.152;2023-11-21T03:50:08;12.60;;;9.90;;
10174;SDS011;18221;38.704;0.152;2023-11-21T03:52:37;11.30;;;8.93;;
10174;SDS011;18221;38.704;0.152;2023-11-21T03:55:05;10.70;;;8.83;;
10174;SDS011;18221;38.704;0.152;2023-11-21T03:57:33;10.63;;;9.40;;
10174;SDS011;18221;38.704;0.152;2023-11-21T04:00:01;11.23;;;9.27;;
10174;SDS011;18221;38.704;0.152;2023-11-21T04:02:33;11.13;;;8.53;;
10174;SDS011;18221;38.704;0.152;2023-11-21T04:05:03;9.87;;;8.77;;
10174;SDS011;18221;38.704;0.152;2023-11-21T04:07:32;10.07;;;8.80;;
10174;SDS011;18221;38.704;0.152;2023-11-21T04:10:00;11.57;;;9.77;;
10174;SDS011;18221;38.704;0.152;2023-11-21T04:12:29;9.93;;;8.80;;
10174;SDS011;18221;38.704;0.152;2023-11-21T04:14:57;10.67;;;8.97;;
10174;SDS011;18221;38.704;0.152;2023-11-21T04:17:24;14.67;;;9.10;;
10174;SDS011;18221;38.704;0.152;2023-11-21T04:19:52;11.33;;;8.83;;
10174;SDS011;18221;38.704;0.152;2023-11-21T04:22:22;9.63;;;8.63;;
10174;SDS011;18221;38.704;0.152;2023-11-21T04:24:50;10.43;;;9.00;;
10174;SDS011;18221;38.704;0.152;2023-11-21T04:27:18;15.60;;;9.17;;
10174;SDS011;18221;38.704;0.152;2023-11-21T04:29:46;11.60;;;8.73;;
10174;SDS011;18221;38.704;0.152;2023-11-21T04:32:14;10.50;;;8.33;;
10174;SDS011;18221;38.704;0.152;2023-11-21T04:34:42;9.73;;;7.97;;
10174;SDS011;18221;38.704;0.152;2023-11-21T04:37:10;8.27;;;7.43;;
10174;SDS011;18221;38.704;0.152;2023-11-21T04:39:39;7.93;;;7.13;;
10174;SDS011;18221;38.704;0.152;2023-11-21T04:42:07;7.93;;;7.10;;
10174;SDS011;18221;38.704;0.152;2023-11-21T04:44:35;9.10;;;7.17;;
10174;SDS011;18221;38.704;0.152;2023-11-21T04:47:06;10.80;;;7.67;;
10174;SDS011;18221;38.704;0.152;2023-11-21T04:49:34;7.97;;;7.17;;
10174;SDS011;18221;38.704;0.152;2023-11-21T04:52:02;8.13;;;7.10;;
10174;SDS011;18221;38.704;0.152;2023-11-21T04:54:30;9.93;;;7.30;;
10174;SDS011;18221;38.704;0.152;2023-11-21T04:56:59;8.07;;;6.50;;
10174;SDS011;18221;38.704;0.152;2023-11-21T04:59:27;7.17;;;6.43;;
10174;SDS011;18221;38.704;0.152;2023-11-21T05:01:55;8.40;;;6.83;;
10174;SDS011;18221;38.704;0.152;2023-11-21T05:04:25;7.03;;;6.07;;
10174;SDS011;18221;38.704;0.152;2023-11-21T05:06:53;6.47;;;5.43;;
10174;SDS011;18221;38.704;0.152;2023-11-21T05:09:21;6.37;;;5.53;;
10174;SDS011;18221;38.704;0.152;2023-11-21T05:11:50;5.73;;;5.13;;
10174;SDS011;18221;38.704;0.152;2023-11-21T05:14:21;6.50;;;5.83;;
10174;SDS011;18221;38.704;0.152;2023-11-21T05:16:50;8.03;;;5.97;;
10174;SDS011;18221;38.704;0.152;2023-11-21T05:19:18;8.23;;;6.77;;
10174;SDS011;18221;38.704;0.152;2023-11-21T05:21:47;7.97;;;7.17;;
10174;SDS011;18221;38.704;0.152;2023-11-21T05:24:15;10.27;;;8.20;;
10174;SDS011;18221;38.704;0.152;2023-11-21T05:26:43;8.87;;;7.53;;
10174;SDS011;18221;38.704;0.152;2023-11-21T05:29:10;8.77;;;7.87;;
10174;SDS011;18221;38.704;0.152;2023-11-21T05:31:40;10.60;;;7.60;;
10174;SDS011;18221;38.704;0.152;2023-11-21T05:34:08;9.67;;;8.00;;
10174;SDS011;18221;38.704;0.152;2023-11-21T05:36:36;13.30;;;8.23;;
10174;SDS011;18221;38.704;0.152;2023-11-21T05:39:04;10.60;;;7.73;;
10174;SDS011;18221;38.704;0.152;2023-11-21T05:41:32;9.47;;;7.50;;
10174;SDS011;18221;38.704;0.152;2023-11-21T05:44:00;10.10;;;7.20;;
10174;SDS011;18221;38.704;0.152;2023-11-21T05:46:28;7.07;;;6.27;;
10174;SDS011;18221;38.704;0.152;2023-11-21T05:48:57;10.10;;;6.63;;
10174;SDS011;18221;38.704;0.152;2023-11-21T05:51:25;7.53;;;6.57;;
10174;SDS011;18221;38.704;0.152;2023-11-21T05:53:53;8.63;;;6.77;;
10174;SDS011;18221;38.704;0.152;2023-11-21T05:56:21;9.40;;;7.00;;
10174;SDS011;18221;38.704;0.152;2023-11-21T05:58:49;9.33;;;7.87;;
10174;SDS011;18221;38.704;0.152;2023-11-21T06:01:17;11.13;;;7.27;;
10174;SDS011;18221;38.704;0.152;2023-11-21T06:03:45;9.13;;;7.67;;
10174;SDS011;18221;38.704;0.152;2023-11-21T06:06:15;10.13;;;8.00;;
10174;SDS011;18221;38.704;0.152;2023-11-21T06:08:44;9.83;;;8.33;;
10174;SDS011;18221;38.704;0.152;2023-11-21T06:11:12;11.60;;;7.60;;
10174;SDS011;18221;38.704;0.152;2023-11-21T06:13:41;10.40;;;7.87;;
10174;SDS011;18221;38.704;0.152;2023-11-21T06:16:09;10.07;;;7.90;;
10174;SDS011;18221;38.704;0.152;2023-11-21T06:18:41;11.83;;;8.10;;
10174;SDS011;18221;38.704;0.152;2023-11-21T06:21:10;10.13;;;8.60;;
10174;SDS011;18221;38.704;0.152;2023-11-21T06:23:40;10.10;;;7.90;;
10174;SDS011;18221;38.704;0.152;2023-11-21T06:26:08;9.87;;;8.23;;
10174;SDS011;18221;38.704;0.152;2023-11-21T06:28:36;10.33;;;8.83;;
10174;SDS011;18221;38.704;0.152;2023-11-21T06:31:04;13.23;;;10.13;;
10174;SDS011;18221;38.704;0.152;2023-11-21T06:33:32;13.33;;;10.70;;
10174;SDS011;18221;38.704;0.152;2023-11-21T06:36:00;13.00;;;10.57;;
10174;SDS011;18221;38.704;0.152;2023-11-21T06:38:28;14.03;;;10.50;;
10174;SDS011;18221;38.704;0.152;2023-11-21T06:40:58;16.13;;;11.07;;
10174;SDS011;18221;38.704;0.152;2023-11-21T06:43:27;16.20;;;12.70;;
10174;SDS011;18221;38.704;0.152;2023-11-21T06:45:56;15.13;;;12.20;;
10174;SDS011;18221;38.704;0.152;2023-11-21T06:48:24;14.53;;;12.17;;
10174;SDS011;18221;38.704;0.152;2023-11-21T06:50:52;16.33;;;12.33;;
10174;SDS011;18221;38.704;0.152;2023-11-21T06:53:20;17.87;;;13.17;;
10174;SDS011;18221;38.704;0.152;2023-11-21T06:55:48;20.40;;;15.20;;
10174;SDS011;18221;38.704;0.152;2023-11-21T06:58:17;28.73;;;18.43;;
10174;SDS011;18221;38.704;0.152;2023-11-21T07:00:45;24.27;;;17.53;;
10174;SDS011;18221;38.704;0.152;2023-11-21T07:03:15;23.00;;;17.53;;
10174;SDS011;18221;38.704;0.152;2023-11-21T07:05:44;23.67;;;18.20;;
10174;SDS011;18221;38.704;0.152;2023-11-21T07:08:12;24.33;;;18.10;;
10174;SDS011;18221;38.704;0.152;2023-11-21T07:10:42;28.43;;;19.90;;
10174;SDS011;18221;38.704;0.152;2023-11-21T07:13:10;27.40;;;19.53;;
10174;SDS011;18221;38.704;0.152;2023-11-21T07:15:40;26.30;;;18.37;;
10174;SDS011;18221;38.704;0.152;2023-11-21T07:18:08;27.50;;;18.03;;
10174;SDS011;18221;38.704;0.152;2023-11-21T07:20:36;24.43;;;17.73;;
10174;SDS011;18221;38.704;0.152;2023-11-21T07:23:04;22.43;;;17.23;;
10174;SDS011;18221;38.704;0.152;2023-11-21T07:25:32;22.20;;;16.33;;
10174;SDS011;18221;38.704;0.152;2023-11-21T07:28:03;19.97;;;15.43;;
10174;SDS011;18221;38.704;0.152;2023-11-21T07:30:31;17.77;;;14.13;;
10174;SDS011;18221;38.704;0.152;2023-11-21T07:33:00;21.47;;;13.97;;
10174;SDS011;18221;38.704;0.152;2023-11-21T07:35:28;16.30;;;12.63;;
10174;SDS011;18221;38.704;0.152;2023-11-21T07:37:56;14.67;;;11.40;;
10174;SDS011;18221;38.704;0.152;2023-11-21T07:40:24;16.47;;;11.70;;
10174;SDS011;18221;38.704;0.152;2023-11-21T07:42:52;15.73;;;11.73;;
10174;SDS011;18221;38.704;0.152;2023-11-21T07:45:22;13.63;;;10.47;;
10174;SDS011;18221;38.704;0.152;2023-11-21T07:47:52;15.13;;;10.07;;
10174;SDS011;18221;38.704;0.152;2023-11-21T07:50:22;13.30;;;9.43;;
10174;SDS011;18221;38.704;0.152;2023-11-21T07:52:52;12.00;;;9.33;;
10174;SDS011;18221;38.704;0.152;2023-11-21T07:55:20;11.60;;;8.27;;
10174;SDS011;18221;38.704;0.152;2023-11-21T07:57:48;13.07;;;9.03;;
10174;SDS011;18221;38.704;0.152;2023-11-21T08:00:17;12.17;;;8.60;;
10174;SDS011;18221;38.704;0.152;2023-11-21T08:02:46;10.23;;;7.83;;
10174;SDS011;18221;38.704;0.152;2023-11-21T08:05:16;10.60;;;6.97;;
10174;SDS011;18221;38.704;0.152;2023-11-21T08:07:45;8.90;;;7.17;;
10174;SDS011;18221;38.704;0.152;2023-11-21T08:10:13;11.33;;;6.50;;
10174;SDS011;18221;38.704;0.152;2023-11-21T08:12:42;8.53;;;6.70;;
10174;SDS011;18221;38.704;0.152;2023-11-21T08:15:10;7.47;;;5.93;;
10174;SDS011;18221;38.704;0.152;2023-11-21T08:17:38;8.30;;;5.80;;
10174;SDS011;18221;38.704;0.152;2023-11-21T08:20:06;8.53;;;6.07;;
10174;SDS011;18221;38.704;0.152;2023-11-21T08:22:37;8.10;;;5.43;;
10174;SDS011;18221;38.704;0.152;2023-11-21T08:25:08;6.53;;;5.00;;
10174;SDS011;18221;38.704;0.152;2023-11-21T08:27:36;6.67;;;5.37;;
10174;SDS011;18221;38.704;0.152;2023-11-21T08:30:05;7.37;;;5.57;;
10174;SDS011;18221;38.704;0.152;2023-11-21T08:32:34;6.70;;;5.93;;
10174;SDS011;18221;38.704;0.152;2023-11-21T08:35:02;6.67;;;5.97;;
10174;SDS011;18221;38.704;0.152;2023-11-21T08:37:30;7.57;;;5.30;;
10174;SDS011;18221;38.704;0.152;2023-11-21T08:40:02;5.10;;;4.40;;
10174;SDS011;18221;38.704;0.152;2023-11-21T08:42:36;5.47;;;4.20;;
10174;SDS011;18221;38.704;0.152;2023-11-21T08:45:04;4.90;;;3.20;;
10174;SDS011;18221;38.704;0.152;2023-11-21T08:47:34;4.27;;;3.17;;
10174;SDS011;18221;38.704;0.152;2023-11-21T08:50:02;3.03;;;2.73;;
10174;SDS011;18221;38.704;0.152;2023-11-21T08:52:33;4.47;;;3.23;;
10174;SDS011;18221;38.704;0.152;2023-11-21T08:55:02;4.30;;;3.43;;
10174;SDS011;18221;38.704;0.152;2023-11-21T08:57:33;4.10;;;3.30;;
10174;SDS011;18221;38.704;0.152;2023-11-21T09:00:03;3.87;;;2.90;;
10174;SDS011;18221;38.704;0.152;2023-11-21T09:02:36;4.03;;;2.90;;
10174;SDS011;18221;38.704;0.152;2023-11-21T09:05:07;3.37;;;2.60;;
10174;SDS011;18221;38.704;0.152;2023-11-21T09:07:35;4.50;;;3.07;;
10174;SDS011;18221;38.704;0.152;2023-11-21T09:10:05;4.33;;;2.80;;
10174;SDS011;18221;38.704;0.152;2023-11-21T09:12:36;4.17;;;3.13;;
10174;SDS011;18221;38.704;0.152;2023-11-21T09:15:05;2.53;;;2.10;;
10174;SDS011;18221;38.704;0.152;2023-11-21T09:17:38;5.83;;;2.53;;
10174;SDS011;18221;38.704;0.152;2023-11-21T09:20:08;3.33;;;2.40;;
10174;SDS011;18221;38.704;0.152;2023-11-21T09:22:37;2.97;;;2.40;;
10174;SDS011;18221;38.704;0.152;2023-11-21T09:25:05;2.53;;;1.80;;
10174;SDS011;18221;38.704;0.152;2023-11-21T09:27:33;3.10;;;1.90;;
10174;SDS011;18221;38.704;0.152;2023-11-21T09:30:03;2.00;;;1.60;;
10174;SDS011;18221;38.704;0.152;2023-11-21T09:32:35;2.17;;;1.50;;
10174;SDS011;18221;38.704;0.152;2023-11-21T09:35:03;1.70;;;1.60;;
10174;SDS011;18221;38.704;0.152;2023-11-21T09:37:33;2.03;;;1.60;;
10174;SDS011;18221;38.704;0.152;2023-11-21T09:40:03;2.47;;;1.80;;
10174;SDS011;18221;38.704;0.152;2023-11-21T09:42:40;1.60;;;1.50;;
10174;SDS011;18221;38.704;0.152;2023-11-21T09:45:21;1.77;;;1.60;;
10174;SDS011;18221;38.704;0.152;2023-11-21T09:47:54;2.23;;;1.53;;
10174;SDS011;18221;38.704;0.152;2023-11-21T09:50:23;1.63;;;1.53;;
10174;SDS011;18221;38.704;0.152;2023-11-21T09:52:56;2.50;;;1.73;;
10174;SDS011;18221;38.704;0.152;2023-11-21T09:55:40;1.77;;;1.60;;
10174;SDS011;18221;38.704;0.152;2023-11-21T09:58:12;3.83;;;1.70;;
10174;SDS011;18221;38.704;0.152;2023-11-21T10:00:41;1.87;;;1.47;;
10174;SDS011;18221;38.704;0.152;2023-11-21T10:03:11;1.70;;;1.60;;
10174;SDS011;18221;38.704;0.152;2023-11-21T10:05:40;1.57;;;1.37;;
10174;SDS011;18221;38.704;0.152;2023-11-21T10:08:11;1.63;;;1.50;;
10174;SDS011;18221;38.704;0.152;2023-11-21T10:10:42;2.10;;;1.63;;
10174;SDS011;18221;38.704;0.152;2023-11-21T10:13:14;3.23;;;1.80;;
10174;SDS011;18221;38.704;0.152;2023-11-21T10:15:47;2.50;;;1.80;;
10174;SDS011;18221;38.704;0.152;2023-11-21T10:18:18;2.17;;;1.70;;
10174;SDS011;18221;38.704;0.152;2023-11-21T10:20:48;2.60;;;1.93;;
10174;SDS011;18221;38.704;0.152;2023-11-21T10:23:18;3.83;;;1.90;;
10174;SDS011;18221;38.704;0.152;2023-11-21T10:25:47;2.30;;;1.83;;
10174;SDS011;18221;38.704;0.152;2023-11-21T10:28:18;2.87;;;1.77;;
10174;SDS011;18221;38.704;0.152;2023-11-21T10:30:46;2.80;;;2.10;;
10174;SDS011;18221;38.704;0.152;2023-11-21T10:33:14;2.57;;;2.20;;
10174;SDS011;18221;38.704;0.152;2023-11-21T10:35:43;5.07;;;2.20;;
10174;SDS011;18221;38.704;0.152;2023-11-21T10:38:16;3.27;;;2.10;;
10174;SDS011;18221;38.704;0.152;2023-11-21T10:40:46;2.30;;;2.10;;
10174;SDS011;18221;38.704;0.152;2023-11-21T10:43:14;4.87;;;2.53;;
10174;SDS011;18221;38.704;0.152;2023-11-21T10:45:45;2.70;;;2.30;;
10174;SDS011;18221;38.704;0.152;2023-11-21T10:48:13;4.13;;;2.53;;
10174;SDS011;18221;38.704;0.152;2023-11-21T10:50:43;2.23;;;1.90;;
10174;SDS011;18221;38.704;0.152;2023-11-21T10:53:13;2.87;;;2.00;;
10174;SDS011;18221;38.704;0.152;2023-11-21T10:55:41;2.20;;;1.80;;
10174;SDS011;18221;38.704;0.152;2023-11-21T10:58:10;2.20;;;2.00;;
10174;SDS011;18221;38.704;0.152;2023-11-21T11:00:41;3.30;;;2.10;;
10174;SDS011;18221;38.704;0.152;2023-11-21T11:03:12;3.63;;;2.60;;
10174;SDS011;18221;38.704;0.152;2023-11-21T11:05:41;3.20;;;2.60;;
10174;SDS011;18221;38.704;0.152;2023-11-21T11:08:16;2.87;;;2.43;;
10174;SDS011;18221;38.704;0.152;2023-11-21T11:10:51;2.97;;;2.17;;
10174;SDS011;18221;38.704;0.152;2023-11-21T11:13:19;2.97;;;2.57;;
10174;SDS011;18221;38.704;0.152;2023-11-21T11:15:49;3.23;;;2.10;;
10174;SDS011;18221;38.704;0.152;2023-11-21T11:18:24;2.30;;;2.10;;
10174;SDS011;18221;38.704;0.152;2023-11-21T11:20:52;5.70;;;2.20;;
10174;SDS011;18221;38.704;0.152;2023-11-21T11:23:32;2.30;;;2.03;;
10174;SDS011;18221;38.704;0.152;2023-11-21T11:26:26;2.10;;;1.90;;
10174;SDS011;18221;38.704;0.152;2023-11-21T11:29:11;2.10;;;1.90;;
10174;SDS011;18221;38.704;0.152;2023-11-21T11:32:03;2.70;;;1.90;;
10174;SDS011;18221;38.704;0.152;2023-11-21T11:34:48;2.30;;;1.80;;
10174;SDS011;18221;38.704;0.152;2023-11-21T11:37:26;3.43;;;1.40;;
10174;SDS011;18221;38.704;0.152;2023-11-21T11:39:55;1.30;;;1.10;;
10174;SDS011;18221;38.704;0.152;2023-11-21T11:42:23;1.67;;;1.57;;
10174;SDS011;18221;38.704;0.152;2023-11-21T11:44:54;1.10;;;1.00;;
10174;SDS011;18221;38.704;0.152;2023-11-21T11:47:25;1.50;;;1.10;;
10174;SDS011;18221;38.704;0.152;2023-11-21T11:50:02;2.47;;;1.17;;
10174;SDS011;18221;38.704;0.152;2023-11-21T11:52:37;1.70;;;1.20;;
10174;SDS011;18221;38.704;0.152;2023-11-21T11:55:07;1.50;;;1.20;;
10174;SDS011;18221;38.704;0.152;2023-11-21T11:57:37;2.97;;;1.40;;
10174;SDS011;18221;38.704;0.152;2023-11-21T12:00:08;1.30;;;1.10;;
10174;SDS011;18221;38.704;0.152;2023-11-21T12:02:47;2.00;;;1.10;;
10174;SDS011;18221;38.704;0.152;2023-11-21T12:05:18;3.27;;;1.27;;
10174;SDS011;18221;38.704;0.152;2023-11-21T12:07:48;6.03;;;1.47;;
10174;SDS011;18221;38.704;0.152;2023-11-21T12:10:19;2.40;;;1.50;;
10174;SDS011;18221;38.704;0.152;2023-11-21T12:12:50;1.80;;;1.50;;
10174;SDS011;18221;38.704;0.152;2023-11-21T12:15:19;2.90;;;1.50;;
10174;SDS011;18221;38.704;0.152;2023-11-21T12:17:49;1.67;;;1.40;;
10174;SDS011;18221;38.704;0.152;2023-11-21T12:20:18;3.17;;;1.97;;
10174;SDS011;18221;38.704;0.152;2023-11-21T12:22:48;4.73;;;1.73;;
10174;SDS011;18221;38.704;0.152;2023-11-21T12:25:18;3.57;;;1.63;;
10174;SDS011;18221;38.704;0.152;2023-11-21T12:27:49;2.77;;;1.50;;
10174;SDS011;18221;38.704;0.152;2023-11-21T12:30:19;1.90;;;1.50;;
10174;SDS011;18221;38.704;0.152;2023-11-21T12:32:51;2.10;;;1.40;;
10174;SDS011;18221;38.704;0.152;2023-11-21T12:35:22;2.80;;;1.40;;
10174;SDS011;18221;38.704;0.152;2023-11-21T12:37:52;3.27;;;1.67;;
10174;SDS011;18221;38.704;0.152;2023-11-21T12:40:22;1.77;;;1.43;;
10174;SDS011;18221;38.704;0.152;2023-11-21T12:42:51;2.17;;;1.57;;
10174;SDS011;18221;38.704;0.152;2023-11-21T12:45:21;2.13;;;1.47;;
10174;SDS011;18221;38.704;0.152;2023-11-21T12:47:54;3.27;;;1.40;;
10174;SDS011;18221;38.704;0.152;2023-11-21T12:50:25;1.77;;;1.50;;
10174;SDS011;18221;38.704;0.152;2023-11-21T12:52:58;1.97;;;1.30;;
10174;SDS011;18221;38.704;0.152;2023-11-21T12:55:30;3.30;;;1.70;;
10174;SDS011;18221;38.704;0.152;2023-11-21T12:58:02;2.93;;;1.70;;
10174;SDS011;18221;38.704;0.152;2023-11-21T13:00:34;2.53;;;2.00;;
10174;SDS011;18221;38.704;0.152;2023-11-21T13:03:06;2.10;;;1.60;;
10174;SDS011;18221;38.704;0.152;2023-11-21T13:05:38;1.87;;;1.60;;
10174;SDS011;18221;38.704;0.152;2023-11-21T13:08:10;5.00;;;1.80;;
10174;SDS011;18221;38.704;0.152;2023-11-21T13:10:43;1.70;;;1.60;;
10174;SDS011;18221;38.704;0.152;2023-11-21T13:13:12;1.90;;;1.53;;
10174;SDS011;18221;38.704;0.152;2023-11-21T13:15:47;4.60;;;1.60;;
10174;SDS011;18221;38.704;0.152;2023-11-21T13:18:17;1.90;;;1.73;;
10174;SDS011;18221;38.704;0.152;2023-11-21T13:20:48;1.77;;;1.50;;
10174;SDS011;18221;38.704;0.152;2023-11-21T13:23:16;3.03;;;1.83;;
10174;SDS011;18221;38.704;0.152;2023-11-21T13:25:44;2.67;;;1.93;;
10174;SDS011;18221;38.704;0.152;2023-11-21T13:28:14;2.40;;;1.73;;
10174;SDS011;18221;38.704;0.152;2023-11-21T13:30:43;1.80;;;1.60;;
10174;SDS011;18221;38.704;0.152;2023-11-21T13:33:13;5.07;;;1.97;;
10174;SDS011;18221;38.704;0.152;2023-11-21T13:35:44;2.10;;;1.53;;
10174;SDS011;18221;38.704;0.152;2023-11-21T13:38:15;1.77;;;1.67;;
10174;SDS011;18221;38.704;0.152;2023-11-21T13:40:48;1.73;;;1.50;;
10174;SDS011;18221;38.704;0.152;2023-11-21T13:43:19;2.37;;;1.90;;
10174;SDS011;18221;38.704;0.152;2023-11-21T13:45:50;2.23;;;1.73;;
10174;SDS011;18221;38.704;0.152;2023-11-21T13:48:25;3.67;;;1.70;;
10174;SDS011;18221;38.704;0.152;2023-11-21T13:51:01;1.97;;;1.50;;
10174;SDS011;18221;38.704;0.152;2023-11-21T13:53:41;2.23;;;1.53;;
10174;SDS011;18221;38.704;0.152;2023-11-21T13:56:09;2.33;;;1.60;;
10174;SDS011;18221;38.704;0.152;2023-11-21T13:58:41;3.70;;;2.50;;
10174;SDS011;18221;38.704;0.152;2023-11-21T14:01:12;8.07;;;5.33;;
10174;SDS011;18221;38.704;0.152;2023-11-21T14:04:01;10.43;;;7.10;;
10174;SDS011;18221;38.704;0.152;2023-11-21T14:06:46;7.10;;;5.90;;
10174;SDS011;18221;38.704;0.152;2023-11-21T14:09:19;8.83;;;7.93;;
10174;SDS011;18221;38.704;0.152;2023-11-21T14:11:50;7.57;;;6.87;;
10174;SDS011;18221;38.704;0.152;2023-11-21T14:14:19;7.17;;;6.07;;
10174;SDS011;18221;38.704;0.152;2023-11-21T14:16:49;10.23;;;7.83;;
10174;SDS011;18221;38.704;0.152;2023-11-21T14:19:17;9.73;;;7.60;;
10174;SDS011;18221;38.704;0.152;2023-11-21T14:21:47;7.97;;;7.10;;
10174;SDS011;18221;38.704;0.152;2023-11-21T14:24:15;9.53;;;7.40;;
10174;SDS011;18221;38.704;0.152;2023-11-21T14:26:43;8.27;;;6.23;;
10174;SDS011;18221;38.704;0.152;2023-11-21T14:29:13;6.27;;;4.90;;
10174;SDS011;18221;38.704;0.152;2023-11-21T14:31:45;7.37;;;6.47;;
10174;SDS011;18221;38.704;0.152;2023-11-21T14:34:13;9.33;;;6.63;;
10174;SDS011;18221;38.704;0.152;2023-11-21T14:36:42;8.63;;;7.23;;
10174;SDS011;18221;38.704;0.152;2023-11-21T14:39:12;8.80;;;7.90;;
10174;SDS011;18221;38.704;0.152;2023-11-21T14:41:48;8.70;;;6.60;;
10174;SDS011;18221;38.704;0.152;2023-11-21T14:44:16;7.33;;;5.20;;
10174;SDS011;18221;38.704;0.152;2023-11-21T14:46:44;5.87;;;5.10;;
10174;SDS011;18221;38.704;0.152;2023-11-21T14:49:15;7.73;;;5.40;;
10174;SDS011;18221;38.704;0.152;2023-11-21T14:51:46;11.37;;;8.10;;
10174;SDS011;18221;38.704;0.152;2023-11-21T14:54:29;10.17;;;8.47;;